createdAt,value
2023-03-02T00:00:10.736Z,35.10
2023-03-02T00:01:13.192Z,34.75
2023-03-02T00:02:22.605Z,38.08
2023-03-02T00:03:25.201Z,38.30
2023-03-02T00:04:50.277Z,36.97
2023-03-02T00:05:53.645Z,37.55
2023-03-02T00:06:59.408Z,40.90
2023-03-02T00:08:02.615Z,34.50
2023-03-02T00:09:06.156Z,37.22
2023-03-02T00:10:08.550Z,36.97
2023-03-02T00:11:11.232Z,33.55
2023-03-02T00:12:14.145Z,37.10
2023-03-02T00:13:15.945Z,34.13
2023-03-02T00:14:17.876Z,33.38
2023-03-02T00:15:19.924Z,36.90
2023-03-02T00:16:21.669Z,31.70
2023-03-02T00:17:27.968Z,37.03
2023-03-02T00:18:29.809Z,46.22
2023-03-02T00:19:31.623Z,38.05
2023-03-02T00:20:34.743Z,41.60
2023-03-02T00:21:36.485Z,37.05
2023-03-02T00:22:46.005Z,35.60
2023-03-02T00:23:47.746Z,36.13
2023-03-02T00:24:49.484Z,35.28
2023-03-02T00:25:51.267Z,34.95
2023-03-02T00:26:53.207Z,36.90
2023-03-02T00:27:54.995Z,33.53
2023-03-02T00:28:56.752Z,36.25
2023-03-02T00:29:58.569Z,35.25
2023-03-02T00:31:00.501Z,37.73
2023-03-02T00:32:03.849Z,33.03
2023-03-02T00:33:05.595Z,35.30
2023-03-02T00:34:07.604Z,31.33
2023-03-02T00:35:09.660Z,33.03
2023-03-02T00:36:18.306Z,39.90
2023-03-02T00:37:20.119Z,41.17
2023-03-02T00:38:21.854Z,36.72
2023-03-02T00:39:23.603Z,36.78
2023-03-02T00:40:25.375Z,35.33
2023-03-02T00:41:27.270Z,34.90
2023-03-02T00:42:29.008Z,36.70
2023-03-02T00:43:30.720Z,40.13
2023-03-02T00:44:32.579Z,34.55
2023-03-02T00:45:34.341Z,34.40
2023-03-02T00:46:36.303Z,40.45
2023-03-02T00:47:39.127Z,38.58
2023-03-02T00:48:41.798Z,35.28
2023-03-02T00:49:48.927Z,37.67
2023-03-02T00:50:50.902Z,37.83
2023-03-02T00:51:52.671Z,38.40
2023-03-02T00:52:54.460Z,32.78
2023-03-02T00:53:56.198Z,32.45
2023-03-02T00:54:58.002Z,37.38
2023-03-02T00:56:01.028Z,41.05
2023-03-02T00:57:02.763Z,34.88
2023-03-02T00:58:05.562Z,37.45
2023-03-02T00:59:26.085Z,37.20
2023-03-02T01:00:28.705Z,35.88
2023-03-02T01:01:30.480Z,36.72
2023-03-02T01:02:32.322Z,37.53
2023-03-02T01:03:34.291Z,34.63
2023-03-02T01:04:39.020Z,32.65
2023-03-02T01:05:40.780Z,33.75
2023-03-02T01:06:47.152Z,41.67
2023-03-02T01:07:49.111Z,38.17
2023-03-02T01:08:50.995Z,30.52
2023-03-02T01:09:52.827Z,35.05
2023-03-02T01:10:54.785Z,42.05
2023-03-02T01:11:56.876Z,35.00
2023-03-02T01:12:58.658Z,37.07
2023-03-02T01:14:00.378Z,36.20
2023-03-02T01:15:02.882Z,33.50
2023-03-02T01:16:05.088Z,35.50
2023-03-02T01:17:08.396Z,37.15
2023-03-02T01:18:11.613Z,37.67
2023-03-02T01:19:14.657Z,36.13
2023-03-02T01:20:17.634Z,33.20
2023-03-02T01:21:19.373Z,36.78
2023-03-02T01:22:22.189Z,34.53
2023-03-02T01:23:23.908Z,31.97
2023-03-02T01:24:26.037Z,37.33
2023-03-02T01:25:27.814Z,40.50
2023-03-02T01:26:29.813Z,39.33
2023-03-02T01:27:31.917Z,34.95
2023-03-02T01:28:33.782Z,36.33
2023-03-02T01:29:35.670Z,34.67
2023-03-02T01:30:37.369Z,37.30
2023-03-02T01:31:39.421Z,40.33
2023-03-02T01:32:41.285Z,37.63
2023-03-02T01:33:43.097Z,35.07
2023-03-02T01:34:44.841Z,43.10
2023-03-02T01:35:47.434Z,38.58
2023-03-02T01:36:49.219Z,39.60
2023-03-02T01:37:50.922Z,35.78
2023-03-02T01:38:54.122Z,37.92
2023-03-02T01:44:46.277Z,32.08
2023-03-02T01:45:53.233Z,36.78
2023-03-02T01:46:55.145Z,36.03
2023-03-02T01:47:56.912Z,31.45
2023-03-02T01:49:02.442Z,34.33
2023-03-02T01:50:26.303Z,36.67
2023-03-02T01:51:30.688Z,30.70
2023-03-02T01:52:38.261Z,30.63
2023-03-02T01:53:46.690Z,35.03
2023-03-02T01:54:50.026Z,32.45
2023-03-02T01:55:52.756Z,36.10
2023-03-02T01:57:01.127Z,34.05
2023-03-02T01:58:04.600Z,35.37
2023-03-02T01:59:10.477Z,28.02
2023-03-02T02:00:16.584Z,32.20
2023-03-02T02:01:18.459Z,29.52
2023-03-02T02:02:20.264Z,33.58
2023-03-02T02:03:26.090Z,29.58
2023-03-02T02:04:29.742Z,33.20
2023-03-02T02:05:31.498Z,28.95
2023-03-02T02:06:42.838Z,35.33
2023-03-02T02:07:44.942Z,35.63
2023-03-02T02:08:47.409Z,48.63
2023-03-02T02:09:52.577Z,32.03
2023-03-02T02:10:55.289Z,32.38
2023-03-02T02:11:57.171Z,31.92
2023-03-02T02:12:58.921Z,36.30
2023-03-02T02:14:02.116Z,28.05
2023-03-02T02:15:05.374Z,31.85
2023-03-02T02:16:07.566Z,27.55
2023-03-02T02:17:10.082Z,35.22
2023-03-02T02:18:12.238Z,32.30
2023-03-02T02:19:24.028Z,34.53
2023-03-02T02:20:32.353Z,33.42
2023-03-02T02:21:34.261Z,28.05
2023-03-02T02:22:45.103Z,39.03
2023-03-02T02:23:56.315Z,29.45
2023-03-02T02:25:03.426Z,33.63
2023-03-02T02:26:41.761Z,30.70
2023-03-02T02:27:43.711Z,35.67
2023-03-02T02:29:02.438Z,33.08
2023-03-02T02:30:07.156Z,31.00
2023-03-02T02:31:21.036Z,30.00
2023-03-02T02:32:26.806Z,33.60
2023-03-02T02:33:28.895Z,34.83
2023-03-02T02:34:45.488Z,33.38
2023-03-02T02:35:49.176Z,29.35
2023-03-02T02:36:56.551Z,27.88
2023-03-02T02:38:04.231Z,39.22
2023-03-02T02:39:08.320Z,31.38
2023-03-02T02:40:18.682Z,31.42
2023-03-02T02:41:24.577Z,31.60
2023-03-02T02:42:33.054Z,29.20
2023-03-02T02:43:34.902Z,32.03
2023-03-02T02:44:36.761Z,33.70
2023-03-02T02:45:38.965Z,34.33
2023-03-02T02:46:40.908Z,32.90
2023-03-02T02:47:43.602Z,33.45
2023-03-02T02:48:45.326Z,30.52
2023-03-02T02:49:49.888Z,29.27
2023-03-02T02:51:00.505Z,28.95
2023-03-02T02:52:04.097Z,29.63
2023-03-02T02:53:22.047Z,35.67
2023-03-02T02:54:24.487Z,33.05
2023-03-02T02:55:27.479Z,31.13
2023-03-02T02:56:36.048Z,30.00
2023-03-02T02:57:37.966Z,30.63
2023-03-02T02:58:39.654Z,30.17
2023-03-02T02:59:48.841Z,29.90
2023-03-02T03:00:50.888Z,44.30
2023-03-02T03:01:52.783Z,37.42
2023-03-02T03:03:01.961Z,32.72
2023-03-02T03:04:05.847Z,32.67
2023-03-02T03:05:14.651Z,35.88
2023-03-02T03:06:20.968Z,32.20
2023-03-02T03:07:24.641Z,31.80
2023-03-02T03:08:41.671Z,34.47
2023-03-02T03:09:43.463Z,29.63
2023-03-02T03:10:45.915Z,29.52
2023-03-02T03:11:54.510Z,33.45
2023-03-02T03:12:56.768Z,29.42
2023-03-02T03:14:11.576Z,31.15
2023-03-02T03:15:14.875Z,31.20
2023-03-02T03:16:18.281Z,33.88
2023-03-02T03:17:20.126Z,31.20
2023-03-02T03:18:24.965Z,28.40
2023-03-02T03:19:32.249Z,28.02
2023-03-02T03:20:34.047Z,28.52
2023-03-02T03:21:36.138Z,32.75
2023-03-02T03:22:38.882Z,31.98
2023-03-02T03:23:40.605Z,31.15
2023-03-02T03:24:44.262Z,27.83
2023-03-02T03:25:46.015Z,34.03
2023-03-02T03:26:48.735Z,33.88
2023-03-02T03:27:50.569Z,31.75
2023-03-02T03:28:52.705Z,32.33
2023-03-02T03:29:54.492Z,31.42
2023-03-02T03:30:56.227Z,32.75
2023-03-02T03:31:59.142Z,40.38
2023-03-02T03:33:00.899Z,32.38
2023-03-02T03:34:02.681Z,28.58
2023-03-02T03:35:08.565Z,35.92
2023-03-02T03:36:10.502Z,34.23
2023-03-02T03:37:15.777Z,32.53
2023-03-02T03:38:18.285Z,34.97
2023-03-02T03:39:20.639Z,35.80
2023-03-02T03:40:22.424Z,38.65
2023-03-02T03:41:24.841Z,33.78
2023-03-02T03:42:26.947Z,29.50
2023-03-02T03:43:28.815Z,34.50
2023-03-02T03:44:30.648Z,29.23
2023-03-02T03:45:32.480Z,34.63
2023-03-02T03:46:35.185Z,31.13
2023-03-02T03:47:37.605Z,32.03
2023-03-02T03:48:39.459Z,30.08
2023-03-02T03:49:41.165Z,29.65
2023-03-02T03:50:42.901Z,28.20
2023-03-02T03:51:44.693Z,33.25
2023-03-02T03:52:46.468Z,27.08
2023-03-02T03:53:59.703Z,31.38
2023-03-02T03:55:02.292Z,27.83
2023-03-02T03:56:04.337Z,26.38
2023-03-02T03:57:06.367Z,25.17
2023-03-02T03:58:08.093Z,33.33
2023-03-02T03:59:13.725Z,32.20
2023-03-02T04:00:19.784Z,28.30
2023-03-02T04:01:21.536Z,33.15
2023-03-02T04:02:23.427Z,25.05
2023-03-02T04:03:25.595Z,33.35
2023-03-02T04:04:31.360Z,33.22
2023-03-02T04:05:33.467Z,28.13
2023-03-02T04:06:36.138Z,34.38
2023-03-02T04:07:39.140Z,27.20
2023-03-02T04:08:40.877Z,26.52
2023-03-02T04:09:43.222Z,32.22
2023-03-02T04:10:45.559Z,28.55
2023-03-02T04:11:49.703Z,29.17
2023-03-02T04:12:51.486Z,27.58
2023-03-02T04:13:53.211Z,33.30
2023-03-02T04:14:54.993Z,29.38
2023-03-02T04:15:56.744Z,28.67
2023-03-02T04:16:58.940Z,30.60
2023-03-02T04:18:00.907Z,32.17
2023-03-02T04:19:03.948Z,32.80
2023-03-02T04:20:09.571Z,31.40
2023-03-02T04:21:11.286Z,31.27
2023-03-02T04:22:13.081Z,32.72
2023-03-02T04:23:14.888Z,36.15
2023-03-02T04:24:18.510Z,28.77
2023-03-02T04:25:23.980Z,27.10
2023-03-02T04:26:26.865Z,23.92
2023-03-02T04:27:28.657Z,29.50
2023-03-02T04:28:30.725Z,33.00
2023-03-02T04:29:32.543Z,31.90
2023-03-02T04:30:34.446Z,33.75
2023-03-02T04:31:37.050Z,30.05
2023-03-02T04:32:38.924Z,29.27
2023-03-02T04:33:40.673Z,34.83
2023-03-02T04:34:42.387Z,33.15
2023-03-02T04:35:44.247Z,37.03
2023-03-02T04:36:46.705Z,33.30
2023-03-02T04:37:48.513Z,30.77
2023-03-02T04:38:50.693Z,36.23
2023-03-02T04:39:53.386Z,32.25
2023-03-02T04:40:56.992Z,34.17
2023-03-02T04:41:58.772Z,34.30
2023-03-02T04:43:00.532Z,34.75
2023-03-02T04:44:02.433Z,30.15
2023-03-02T04:45:04.505Z,31.60
2023-03-02T04:46:06.411Z,33.15
2023-03-02T04:47:09.375Z,33.88
2023-03-02T04:48:11.132Z,35.88
2023-03-02T04:49:14.886Z,38.67
2023-03-02T04:50:16.708Z,29.65
2023-03-02T04:51:30.724Z,30.65
2023-03-02T04:52:32.496Z,33.70
2023-03-02T04:53:34.325Z,36.22
2023-03-02T04:54:36.092Z,37.08
2023-03-02T04:55:38.961Z,29.77
2023-03-02T04:56:40.771Z,33.00
2023-03-02T04:57:42.539Z,34.22
2023-03-02T04:58:44.376Z,27.75
2023-03-02T04:59:46.161Z,26.73
2023-03-02T05:00:47.918Z,27.42
2023-03-02T05:01:50.306Z,30.02
2023-03-02T05:02:52.276Z,29.90
2023-03-02T05:03:54.260Z,29.77
2023-03-02T05:04:56.174Z,28.88
2023-03-02T05:05:58.018Z,30.25
2023-03-02T05:06:59.982Z,30.35
2023-03-02T05:08:01.826Z,34.85
2023-03-02T05:09:04.822Z,25.80
2023-03-02T05:10:07.092Z,31.73
2023-03-02T05:11:10.754Z,27.55
2023-03-02T05:12:12.494Z,32.03
2023-03-02T05:13:14.297Z,28.85
2023-03-02T05:14:16.016Z,26.98
2023-03-02T05:15:17.825Z,33.03
2023-03-02T05:16:21.134Z,29.90
2023-03-02T05:17:22.986Z,30.02
2023-03-02T05:18:25.986Z,41.03
2023-03-02T05:19:28.126Z,74.15
2023-03-02T05:20:31.473Z,34.93
2023-03-02T05:21:33.263Z,29.52
2023-03-02T05:22:34.974Z,28.10
2023-03-02T05:23:36.780Z,26.30
2023-03-02T05:24:38.588Z,29.55
2023-03-02T05:25:40.340Z,29.02
2023-03-02T05:26:42.223Z,34.58
2023-03-02T05:27:43.993Z,29.88
2023-03-02T05:28:46.549Z,29.58
2023-03-02T05:29:48.315Z,32.83
2023-03-02T05:30:50.813Z,30.53
2023-03-02T05:31:52.681Z,34.00
2023-03-02T05:32:54.924Z,35.20
2023-03-02T05:33:57.034Z,31.17
2023-03-02T05:34:58.889Z,28.38
2023-03-02T05:36:01.254Z,26.70
2023-03-02T05:37:03.038Z,31.63
2023-03-02T05:38:05.259Z,26.23
2023-03-02T05:39:08.653Z,31.50
2023-03-02T05:40:16.945Z,28.25
2023-03-02T05:41:18.728Z,32.47
2023-03-02T05:42:20.495Z,28.30
2023-03-02T05:43:23.418Z,30.42
2023-03-02T05:44:25.157Z,30.13
2023-03-02T05:45:30.672Z,31.42
2023-03-02T05:46:32.822Z,30.67
2023-03-02T05:47:34.766Z,33.90
2023-03-02T05:48:36.524Z,31.45
2023-03-02T05:49:38.306Z,32.38
2023-03-02T05:50:40.510Z,38.58
2023-03-02T05:51:42.278Z,37.17
2023-03-02T05:52:45.455Z,31.30
2023-03-02T05:53:47.703Z,32.83
2023-03-02T05:54:49.514Z,37.33
2023-03-02T05:55:51.694Z,37.90
2023-03-02T05:56:53.411Z,37.10
2023-03-02T05:57:55.389Z,30.33
2023-03-02T05:58:57.146Z,32.58
2023-03-02T05:59:58.874Z,34.03
2023-03-02T06:01:01.282Z,32.60
2023-03-02T06:02:04.285Z,33.43
2023-03-02T06:03:06.240Z,34.78
2023-03-02T06:04:08.138Z,42.10
2023-03-02T06:05:15.943Z,35.50
2023-03-02T06:06:17.721Z,34.72
2023-03-02T06:07:19.463Z,35.17
2023-03-02T06:08:21.697Z,31.10
2023-03-02T06:09:23.506Z,33.80
2023-03-02T06:10:25.333Z,33.70
2023-03-02T06:11:27.170Z,34.45
2023-03-02T06:12:28.934Z,31.93
2023-03-02T06:13:30.674Z,37.90
2023-03-02T06:14:32.438Z,39.05
2023-03-02T06:15:34.218Z,331.65
2023-03-02T06:16:37.242Z,386.25
2023-03-02T06:17:39.156Z,106.32
2023-03-02T06:18:41.641Z,47.85
2023-03-02T06:19:43.493Z,39.42
2023-03-02T06:20:45.360Z,39.65
2023-03-02T06:21:47.094Z,37.22
2023-03-02T06:22:48.927Z,33.37
2023-03-02T06:23:50.704Z,34.40
2023-03-02T06:24:55.125Z,30.05
2023-03-02T06:25:58.188Z,35.95
2023-03-02T06:27:00.257Z,33.35
2023-03-02T06:28:02.140Z,38.72
2023-03-02T06:29:05.512Z,33.88
2023-03-02T06:30:09.416Z,31.88
2023-03-02T06:31:11.134Z,35.20
2023-03-02T06:32:12.986Z,32.58
2023-03-02T06:33:18.089Z,29.13
2023-03-02T06:34:19.840Z,35.63
2023-03-02T06:35:21.729Z,32.90
2023-03-02T06:36:23.877Z,27.60
2023-03-02T06:37:25.650Z,32.38
2023-03-02T06:38:27.458Z,29.17
2023-03-02T06:39:30.138Z,28.65
2023-03-02T06:40:31.887Z,31.75
2023-03-02T06:41:34.079Z,33.83
2023-03-02T06:42:37.174Z,30.38
2023-03-02T06:43:38.931Z,29.60
2023-03-02T06:44:40.667Z,35.40
2023-03-02T06:45:42.426Z,30.75
2023-03-02T06:46:45.845Z,27.98
2023-03-02T06:47:47.784Z,34.20
2023-03-02T06:48:49.514Z,38.45
2023-03-02T06:49:51.394Z,59.78
2023-03-02T06:50:53.201Z,126.85
2023-03-02T06:51:54.966Z,120.78
2023-03-02T06:52:56.839Z,112.65
2023-03-02T06:53:58.922Z,77.60
2023-03-02T06:55:00.768Z,75.05
2023-03-02T06:56:02.509Z,69.40
2023-03-02T06:57:04.352Z,46.80
2023-03-02T06:58:06.181Z,48.58
2023-03-02T06:59:07.976Z,64.05
2023-03-02T07:00:25.888Z,58.55
2023-03-02T07:01:32.793Z,66.78
2023-03-02T07:02:34.816Z,61.33
2023-03-02T07:03:36.966Z,61.33
2023-03-02T07:04:39.451Z,72.00
2023-03-02T07:05:41.272Z,70.95
2023-03-02T07:06:43.409Z,62.70
2023-03-02T07:07:45.411Z,56.78
2023-03-02T07:08:47.201Z,53.92
2023-03-02T07:09:48.974Z,72.30
2023-03-02T07:10:50.698Z,55.22
2023-03-02T07:11:52.444Z,44.58
2023-03-02T07:12:54.435Z,34.28
2023-03-02T07:13:56.150Z,31.42
2023-03-02T07:14:57.908Z,34.50
2023-03-02T07:15:59.679Z,34.97
2023-03-02T07:17:03.689Z,39.17
2023-03-02T07:18:05.480Z,37.65
2023-03-02T07:19:10.188Z,38.90
2023-03-02T07:20:14.037Z,31.85
2023-03-02T07:21:15.788Z,34.15
2023-03-02T07:22:17.552Z,36.85
2023-03-02T07:23:19.306Z,33.65
2023-03-02T07:24:22.357Z,29.55
2023-03-02T07:25:24.128Z,33.93
2023-03-02T07:26:25.884Z,30.15
2023-03-02T07:27:28.007Z,33.58
2023-03-02T07:28:29.755Z,39.38
2023-03-02T07:29:31.530Z,39.45
2023-03-02T07:30:33.413Z,38.17
2023-03-02T07:31:35.570Z,38.15
2023-03-02T07:32:37.573Z,35.85
2023-03-02T07:33:40.231Z,30.73
2023-03-02T07:34:41.976Z,38.85
2023-03-02T07:35:43.753Z,33.83
2023-03-02T07:36:45.567Z,45.25
2023-03-02T07:37:47.392Z,64.93
2023-03-02T07:38:49.120Z,73.20
2023-03-02T07:39:51.275Z,51.30
2023-03-02T07:40:53.043Z,47.80
2023-03-02T07:41:59.878Z,50.20
2023-03-02T07:43:01.631Z,37.35
2023-03-02T07:44:03.372Z,33.90
2023-03-02T07:45:06.031Z,35.25
2023-03-02T07:46:07.886Z,37.20
2023-03-02T07:47:09.754Z,35.13
2023-03-02T07:48:11.577Z,38.78
2023-03-02T07:49:13.297Z,35.55
2023-03-02T07:50:15.188Z,39.67
2023-03-02T07:51:17.005Z,36.75
2023-03-02T07:52:18.768Z,46.00
2023-03-02T07:53:20.508Z,40.63
2023-03-02T07:54:22.666Z,48.83
2023-03-02T07:55:24.469Z,47.70
2023-03-02T07:56:26.278Z,41.00
2023-03-02T07:57:28.001Z,38.35
2023-03-02T07:58:29.783Z,41.85
2023-03-02T07:59:31.558Z,40.25
2023-03-02T08:00:33.510Z,37.75
2023-03-02T08:01:35.585Z,31.70
2023-03-02T08:02:37.507Z,33.10
2023-03-02T08:03:39.525Z,34.05
2023-03-02T08:04:41.428Z,36.00
2023-03-02T08:05:43.207Z,38.40
2023-03-02T08:06:45.039Z,42.93
2023-03-02T08:07:47.171Z,33.55
2023-03-02T08:08:49.141Z,34.25
2023-03-02T08:09:51.163Z,36.95
2023-03-02T08:10:52.925Z,31.80
2023-03-02T08:11:54.678Z,34.55
2023-03-02T08:12:56.462Z,33.83
2023-03-02T08:14:02.474Z,33.60
2023-03-02T08:15:05.168Z,36.70
2023-03-02T08:16:10.044Z,34.10
2023-03-02T08:17:11.890Z,42.77
2023-03-02T08:18:13.684Z,39.97
2023-03-02T08:19:15.503Z,41.95
2023-03-02T08:20:17.303Z,52.17
2023-03-02T08:21:21.521Z,39.65
2023-03-02T08:22:23.347Z,36.55
2023-03-02T08:23:25.838Z,36.60
2023-03-02T08:24:27.639Z,36.50
2023-03-02T08:25:29.396Z,37.25
2023-03-02T08:26:31.931Z,44.90
2023-03-02T08:27:33.861Z,59.43
2023-03-02T08:28:36.006Z,39.00
2023-03-02T08:29:37.755Z,35.90
2023-03-02T08:30:40.828Z,39.17
2023-03-02T08:31:42.637Z,36.50
2023-03-02T08:32:44.575Z,121.22
2023-03-02T08:33:46.438Z,67.40
2023-03-02T08:34:51.648Z,78.32
2023-03-02T08:35:56.479Z,104.80
2023-03-02T08:36:58.342Z,62.17
2023-03-02T08:38:00.128Z,56.50
2023-03-02T08:39:01.936Z,46.83
2023-03-02T08:40:04.070Z,48.05
2023-03-02T08:41:07.881Z,49.45
2023-03-02T08:42:09.641Z,55.92
2023-03-02T08:43:11.404Z,53.80
2023-03-02T08:44:13.129Z,61.28
2023-03-02T08:45:15.026Z,50.13
2023-03-02T08:46:18.760Z,41.70
2023-03-02T08:47:20.656Z,46.38
2023-03-02T08:48:22.751Z,45.37
2023-03-02T08:49:24.526Z,38.20
2023-03-02T08:50:26.311Z,39.83
2023-03-02T08:51:28.865Z,38.55
2023-03-02T08:52:32.663Z,38.47
2023-03-02T08:53:38.933Z,38.85
2023-03-02T08:54:40.770Z,37.55
2023-03-02T08:55:42.663Z,34.30
2023-03-02T08:56:44.569Z,37.78
2023-03-02T08:57:46.444Z,35.13
2023-03-02T08:58:49.714Z,36.33
2023-03-02T08:59:52.354Z,37.67
2023-03-02T09:00:54.205Z,38.33
2023-03-02T09:01:56.012Z,42.95
2023-03-02T09:02:57.793Z,34.88
2023-03-02T09:04:00.764Z,32.28
2023-03-02T09:05:02.737Z,36.63
2023-03-02T09:06:04.716Z,36.53
2023-03-02T09:07:06.529Z,41.35
2023-03-02T09:08:09.207Z,41.08
2023-03-02T09:09:12.855Z,30.30
2023-03-02T09:10:14.624Z,33.50
2023-03-02T09:11:16.799Z,35.30
2023-03-02T09:12:18.594Z,37.53
2023-03-02T09:13:20.338Z,35.60
2023-03-02T09:14:22.343Z,39.90
2023-03-02T09:15:24.135Z,38.13
2023-03-02T09:16:26.218Z,33.17
2023-03-02T09:17:28.142Z,36.70
2023-03-02T09:18:30.871Z,31.23
2023-03-02T09:19:43.246Z,39.93
2023-03-02T09:20:53.463Z,33.05
2023-03-02T09:21:55.265Z,33.05
2023-03-02T09:22:57.133Z,38.00
2023-03-02T09:23:59.131Z,35.70
2023-03-02T09:25:00.852Z,34.33
2023-03-02T09:26:03.929Z,31.88
2023-03-02T09:27:05.747Z,44.88
2023-03-02T09:28:07.636Z,34.17
2023-03-02T09:29:09.426Z,33.13
2023-03-02T09:30:12.080Z,34.10
2023-03-02T09:31:13.916Z,32.53
2023-03-02T09:32:15.968Z,35.05
2023-03-02T09:33:18.476Z,36.25
2023-03-02T09:34:20.538Z,39.45
2023-03-02T09:35:22.260Z,35.08
2023-03-02T09:36:26.044Z,31.92
2023-03-02T09:37:28.724Z,38.65
2023-03-02T09:38:30.524Z,33.67
2023-03-02T09:39:32.237Z,32.60
2023-03-02T09:40:40.120Z,33.43
2023-03-02T09:42:05.419Z,36.08
2023-03-02T09:43:12.807Z,34.50
2023-03-02T09:44:44.005Z,34.88
2023-03-02T09:45:51.591Z,43.05
2023-03-02T09:47:02.888Z,35.30
2023-03-02T09:48:46.327Z,36.92
2023-03-02T09:50:27.211Z,37.72
2023-03-02T09:51:46.821Z,28.48
2023-03-02T09:53:07.863Z,39.55
2023-03-02T09:54:24.555Z,31.73
2023-03-02T09:55:32.252Z,33.63
2023-03-02T09:56:38.184Z,36.40
2023-03-02T09:57:40.071Z,36.28
2023-03-02T09:58:48.262Z,35.22
2023-03-02T10:00:19.121Z,38.83
2023-03-02T10:01:34.922Z,32.95
2023-03-02T10:02:48.863Z,36.00
2023-03-02T10:04:25.286Z,39.85
2023-03-02T10:05:42.620Z,41.35
2023-03-02T10:06:45.306Z,33.00
2023-03-02T10:07:48.331Z,32.20
2023-03-02T10:08:51.019Z,31.77
2023-03-02T10:09:53.465Z,40.85
2023-03-02T10:11:13.417Z,31.85
2023-03-02T10:12:48.258Z,31.00
2023-03-02T10:14:00.800Z,30.40
2023-03-02T10:15:22.353Z,28.23
2023-03-02T10:16:37.287Z,33.60
2023-03-02T10:17:39.088Z,32.80
2023-03-02T10:18:43.693Z,31.50
2023-03-02T10:19:50.806Z,31.37
2023-03-02T10:21:06.454Z,31.98
2023-03-02T10:22:15.917Z,34.55
2023-03-02T10:23:38.963Z,33.03
2023-03-02T10:25:08.355Z,30.73
2023-03-02T10:26:21.664Z,37.58
2023-03-02T10:27:33.936Z,34.10
2023-03-02T10:28:44.278Z,35.42
2023-03-02T10:30:06.481Z,32.38
2023-03-02T10:31:25.783Z,36.70
2023-03-02T10:32:32.922Z,30.73
2023-03-02T10:33:38.316Z,28.25
2023-03-02T10:34:40.108Z,31.38
2023-03-02T10:35:47.769Z,35.60
2023-03-02T10:36:49.592Z,40.78
2023-03-02T10:38:15.030Z,40.60
2023-03-02T10:39:17.873Z,35.92
2023-03-02T10:40:31.902Z,35.58
2023-03-02T10:41:41.756Z,30.00
2023-03-02T10:42:43.620Z,24.65
2023-03-02T10:43:48.946Z,38.30
2023-03-02T10:44:59.185Z,36.50
2023-03-02T10:46:07.646Z,27.08
2023-03-02T10:47:20.866Z,29.05
2023-03-02T10:48:23.109Z,27.75
2023-03-02T10:49:32.249Z,29.48
2023-03-02T10:50:34.820Z,34.63
2023-03-02T10:51:37.477Z,34.58
2023-03-02T10:52:59.790Z,34.00
2023-03-02T10:54:13.724Z,29.13
2023-03-02T10:55:15.907Z,29.97
2023-03-02T10:56:21.769Z,30.10
2023-03-02T10:57:28.442Z,30.15
2023-03-02T10:58:32.701Z,26.42
2023-03-02T10:59:49.697Z,29.92
2023-03-02T11:01:00.017Z,29.25
2023-03-02T11:02:12.986Z,26.00
2023-03-02T11:03:22.822Z,27.85
2023-03-02T11:04:24.631Z,32.40
2023-03-02T11:05:37.138Z,23.57
2023-03-02T11:06:38.887Z,30.63
2023-03-02T11:07:40.658Z,27.50
2023-03-02T11:08:42.388Z,23.30
2023-03-02T11:09:56.990Z,22.60
2023-03-02T11:11:21.586Z,24.17
2023-03-02T11:12:23.695Z,23.05
2023-03-02T11:13:37.387Z,21.92
2023-03-02T11:14:39.164Z,23.13
2023-03-02T11:15:46.439Z,22.85
2023-03-02T11:16:48.219Z,19.70
2023-03-02T11:18:16.100Z,21.07
2023-03-02T11:19:29.617Z,20.30
2023-03-02T11:20:37.286Z,22.48
2023-03-02T11:21:52.620Z,22.45
2023-03-02T11:23:07.832Z,21.17
2023-03-02T11:24:23.921Z,21.75
2023-03-02T11:25:31.165Z,20.33
2023-03-02T11:26:44.346Z,23.25
2023-03-02T11:27:46.839Z,19.17
2023-03-02T11:29:03.458Z,16.55
2023-03-02T11:30:22.723Z,17.10
2023-03-02T11:31:49.897Z,19.95
2023-03-02T11:33:03.108Z,18.63
2023-03-02T11:34:18.003Z,17.20
2023-03-02T11:35:58.723Z,21.27
2023-03-02T11:37:20.970Z,21.23
2023-03-02T11:38:48.411Z,19.92
2023-03-02T11:39:55.468Z,17.58
2023-03-02T11:41:04.404Z,17.05
2023-03-02T11:42:18.471Z,20.50
2023-03-02T11:43:20.276Z,14.13
2023-03-02T11:44:24.148Z,16.73
2023-03-02T11:45:38.271Z,14.70
2023-03-02T11:46:40.964Z,16.25
2023-03-02T11:48:02.577Z,21.25
2023-03-02T11:49:13.015Z,23.08
2023-03-02T11:50:16.616Z,15.65
2023-03-02T11:51:29.310Z,19.65
2023-03-02T11:52:37.664Z,17.15
2023-03-02T11:54:21.016Z,15.88
2023-03-02T11:55:25.979Z,19.10
2023-03-02T11:56:31.747Z,15.30
2023-03-02T11:57:40.145Z,17.23
2023-03-02T11:58:44.908Z,20.70
2023-03-02T11:59:47.256Z,24.13
2023-03-02T12:00:50.850Z,16.25
2023-03-02T12:01:54.418Z,19.08
2023-03-02T12:03:15.189Z,15.35
2023-03-02T12:04:37.382Z,12.25
2023-03-02T12:05:40.028Z,14.48
2023-03-02T12:06:44.134Z,15.73
2023-03-02T12:08:00.497Z,12.93
2023-03-02T12:09:34.387Z,15.02
2023-03-02T12:10:39.975Z,18.42
2023-03-02T12:11:46.284Z,17.40
2023-03-02T12:13:14.297Z,16.42
2023-03-02T12:14:38.128Z,26.90
2023-03-02T12:15:46.717Z,15.57
2023-03-02T12:16:48.575Z,14.63
2023-03-02T12:17:50.383Z,13.27
2023-03-02T12:18:53.039Z,13.53
2023-03-02T12:20:08.365Z,12.70
2023-03-02T12:21:22.555Z,9.00
2023-03-02T12:22:32.339Z,12.13
2023-03-02T12:23:51.351Z,8.73
2023-03-02T12:25:20.030Z,12.38
2023-03-02T12:26:21.788Z,7.85
2023-03-02T12:27:26.940Z,8.40
2023-03-02T12:28:39.148Z,11.95
2023-03-02T12:29:42.300Z,11.25
2023-03-02T12:30:44.073Z,9.70
2023-03-02T12:31:49.743Z,10.77
2023-03-02T12:33:22.570Z,14.68
2023-03-02T12:34:24.323Z,8.95
2023-03-02T12:35:26.896Z,10.20
2023-03-02T12:36:43.116Z,12.13
2023-03-02T12:37:51.876Z,12.48
2023-03-02T12:38:59.991Z,12.68
2023-03-02T12:40:19.730Z,10.63
2023-03-02T12:41:58.993Z,11.88
2023-03-02T12:43:19.845Z,16.03
2023-03-02T12:44:21.569Z,12.10
2023-03-02T12:45:26.109Z,13.73
2023-03-02T12:46:32.363Z,13.45
2023-03-02T12:47:34.766Z,13.05
2023-03-02T12:48:42.886Z,14.40
2023-03-02T12:49:51.114Z,12.43
2023-03-02T12:50:59.318Z,11.60
2023-03-02T12:52:26.386Z,17.15
2023-03-02T12:53:29.067Z,14.02
2023-03-02T12:54:33.646Z,12.93
2023-03-02T12:55:38.751Z,20.25
2023-03-02T12:56:40.663Z,15.57
2023-03-02T12:57:51.227Z,14.02
2023-03-02T12:58:54.267Z,12.57
2023-03-02T12:59:59.454Z,13.68
2023-03-02T13:01:03.024Z,13.98
2023-03-02T13:02:19.048Z,13.98
2023-03-02T13:03:21.280Z,15.43
2023-03-02T13:04:25.847Z,17.43
2023-03-02T13:05:30.290Z,16.80
2023-03-02T13:06:36.407Z,17.58
2023-03-02T13:07:56.463Z,17.08
2023-03-02T13:09:00.650Z,16.75
2023-03-02T13:10:26.790Z,18.30
2023-03-02T13:11:32.925Z,17.48
2023-03-02T13:12:37.348Z,16.40
2023-03-02T13:13:42.763Z,19.42
2023-03-02T13:14:50.013Z,14.38
2023-03-02T13:15:54.624Z,18.30
2023-03-02T13:16:59.068Z,18.60
2023-03-02T13:18:01.008Z,15.52
2023-03-02T13:19:10.978Z,17.83
2023-03-02T13:20:14.666Z,23.05
2023-03-02T13:21:18.098Z,19.40
2023-03-02T13:22:22.493Z,18.25
2023-03-02T13:23:26.477Z,19.58
2023-03-02T13:24:45.093Z,15.25
2023-03-02T13:25:53.716Z,17.05
2023-03-02T13:27:04.548Z,17.20
2023-03-02T13:28:10.032Z,17.87
2023-03-02T13:29:19.489Z,15.07
2023-03-02T13:30:28.003Z,15.35
2023-03-02T13:31:30.315Z,17.75
2023-03-02T13:32:51.347Z,26.20
2023-03-02T13:33:54.615Z,20.73
2023-03-02T13:34:59.242Z,18.52
2023-03-02T13:36:01.129Z,22.23
2023-03-02T13:37:13.502Z,18.05
2023-03-02T13:38:20.813Z,22.17
2023-03-02T13:39:27.768Z,19.50
2023-03-02T13:40:41.715Z,19.00
2023-03-02T13:41:58.945Z,20.08
2023-03-02T13:43:00.826Z,24.70
2023-03-02T13:44:20.540Z,21.80
2023-03-02T13:45:29.810Z,20.35
2023-03-02T13:46:36.126Z,19.67
2023-03-02T13:47:38.178Z,21.00
2023-03-02T13:48:39.918Z,22.20
2023-03-02T13:49:41.665Z,17.83
2023-03-02T13:50:57.072Z,20.93
2023-03-02T13:52:16.441Z,21.80
2023-03-02T13:53:18.245Z,18.95
2023-03-02T13:54:24.353Z,19.75
2023-03-02T13:55:27.193Z,19.90
2023-03-02T13:56:38.427Z,18.02
2023-03-02T13:57:41.710Z,20.15
2023-03-02T13:58:43.787Z,19.55
2023-03-02T13:59:45.644Z,15.98
2023-03-02T14:00:48.024Z,20.47
2023-03-02T14:01:50.099Z,25.43
2023-03-02T14:02:52.359Z,16.85
2023-03-02T14:03:55.429Z,27.63
2023-03-02T14:04:59.000Z,22.95
2023-03-02T14:06:00.988Z,17.80